createdAt,value
2023-05-13T00:02:08.805Z,12.70
2023-05-13T00:07:08.722Z,12.62
2023-05-13T00:12:08.690Z,12.59
2023-05-13T00:17:08.604Z,12.56
2023-05-13T00:22:08.506Z,12.49
2023-05-13T00:27:08.501Z,12.39
2023-05-13T00:32:08.420Z,12.37
2023-05-13T00:37:08.347Z,12.34
2023-05-13T00:42:08.395Z,12.31
2023-05-13T00:47:08.309Z,12.29
2023-05-13T00:52:08.250Z,12.19
2023-05-13T00:57:08.102Z,12.20
2023-05-13T01:02:08.162Z,12.20
2023-05-13T01:07:08.055Z,12.19
2023-05-13T01:12:07.978Z,12.28
2023-05-13T01:17:08.032Z,12.28
2023-05-13T01:22:07.829Z,12.21
2023-05-13T01:27:07.756Z,12.14
2023-05-13T01:32:07.698Z,12.07
2023-05-13T01:37:07.658Z,11.99
2023-05-13T01:42:07.656Z,11.90
2023-05-13T01:47:07.627Z,11.94
2023-05-13T01:52:07.540Z,11.86
2023-05-13T01:57:07.429Z,11.79
2023-05-13T02:02:07.571Z,11.79
2023-05-13T02:07:07.403Z,11.76
2023-05-13T02:12:07.370Z,11.79
2023-05-13T02:17:07.212Z,11.82
2023-05-13T02:22:07.188Z,11.80
2023-05-13T02:27:07.119Z,11.85
2023-05-13T02:32:07.291Z,11.85
2023-05-13T02:37:07.035Z,11.83
2023-05-13T02:42:07.017Z,11.82
2023-05-13T02:47:06.991Z,11.72
2023-05-13T02:52:06.922Z,11.64
2023-05-13T02:57:06.870Z,11.55
2023-05-13T03:02:06.777Z,11.57
2023-05-13T03:07:06.707Z,11.51
2023-05-13T03:12:06.643Z,11.39
2023-05-13T03:17:06.534Z,11.43
2023-05-13T03:22:06.491Z,11.42
2023-05-13T03:27:06.474Z,11.29
2023-05-13T03:32:06.512Z,11.22
2023-05-13T03:37:06.422Z,11.19
2023-05-13T03:42:06.381Z,11.15
2023-05-13T03:47:06.277Z,11.06
2023-05-13T03:52:06.203Z,11.02
2023-05-13T03:57:06.216Z,11.00
2023-05-13T04:02:06.131Z,11.02
2023-05-13T04:07:06.007Z,10.99
2023-05-13T04:12:05.925Z,11.00
2023-05-13T04:17:06.102Z,11.00
2023-05-13T04:22:14.714Z,11.21
2023-05-13T04:27:05.784Z,11.17
2023-05-13T04:32:05.824Z,11.25
2023-05-13T04:37:05.736Z,11.36
2023-05-13T04:42:06.710Z,11.49
2023-05-13T04:47:05.579Z,11.64
2023-05-13T04:52:05.548Z,11.76
2023-05-13T04:57:05.455Z,11.91
2023-05-13T05:02:05.472Z,11.99
2023-05-13T05:07:05.320Z,12.05
2023-05-13T05:12:05.305Z,12.34
2023-05-13T05:17:05.270Z,12.21
2023-05-13T05:22:05.270Z,12.64
2023-05-13T05:27:05.132Z,12.83
2023-05-13T05:32:05.189Z,13.12
2023-05-13T05:37:05.015Z,13.38
2023-05-13T05:42:04.990Z,13.59
2023-05-13T05:47:04.910Z,13.77
2023-05-13T05:52:04.873Z,14.04
2023-05-13T05:57:04.785Z,14.27
2023-05-13T06:02:04.821Z,14.64
2023-05-13T06:07:04.757Z,15.14
2023-05-13T06:12:04.677Z,15.36
2023-05-13T06:17:04.612Z,15.76
2023-05-13T06:22:04.759Z,16.07
2023-05-13T06:27:04.488Z,16.58
2023-05-13T06:32:04.414Z,16.75
2023-05-13T06:37:04.374Z,16.61
2023-05-13T06:42:04.345Z,16.93
2023-05-13T06:47:04.299Z,17.00
2023-05-13T06:52:04.229Z,16.85
2023-05-13T06:57:04.204Z,16.73
2023-05-13T07:02:04.095Z,16.31
2023-05-13T07:07:04.051Z,16.25
2023-05-13T07:12:04.086Z,16.35
2023-05-13T07:17:04.066Z,16.35
2023-05-13T07:22:03.929Z,16.38
2023-05-13T07:27:04.007Z,16.58
2023-05-13T07:32:03.854Z,16.71
2023-05-13T07:37:03.774Z,17.25
2023-05-13T07:42:03.695Z,18.07
2023-05-13T07:47:03.647Z,18.67
2023-05-13T07:52:03.528Z,19.39
2023-05-13T07:57:03.474Z,19.65
2023-05-13T08:02:03.443Z,20.01
2023-05-13T08:07:03.409Z,20.36
2023-05-13T08:12:03.429Z,20.87
2023-05-13T08:17:03.399Z,21.07
2023-05-13T08:22:04.215Z,21.38
2023-05-13T08:27:03.262Z,21.83
2023-05-13T08:32:03.177Z,22.30
2023-05-13T08:37:03.066Z,22.20
2023-05-13T08:42:03.023Z,22.27
2023-05-13T08:47:02.983Z,22.94
2023-05-13T08:52:02.959Z,23.50
2023-05-13T08:57:02.877Z,23.53
2023-05-13T09:02:02.849Z,23.47
2023-05-13T09:07:02.805Z,24.03
2023-05-13T09:12:02.859Z,24.30
2023-05-13T09:17:02.691Z,24.32
2023-05-13T09:22:02.590Z,24.42
2023-05-13T09:27:02.546Z,24.03
2023-05-13T09:32:02.579Z,23.88
2023-05-13T09:37:02.442Z,23.95
2023-05-13T09:42:05.358Z,24.45
2023-05-13T09:47:02.749Z,24.47
2023-05-13T09:52:02.258Z,24.96
2023-05-13T09:57:02.271Z,25.70
2023-05-13T10:02:02.161Z,25.51
2023-05-13T10:07:02.129Z,25.18
2023-05-13T10:12:02.099Z,25.23
2023-05-13T10:17:02.246Z,25.09
2023-05-13T10:22:02.064Z,25.43
2023-05-13T10:27:02.040Z,25.97
2023-05-13T10:32:01.909Z,25.83
2023-05-13T10:37:01.845Z,25.45
2023-05-13T10:42:01.757Z,25.85
2023-05-13T10:47:01.794Z,25.47
2023-05-13T10:52:01.684Z,25.40
2023-05-13T10:57:01.629Z,25.38
2023-05-13T11:02:01.732Z,25.77
2023-05-13T11:07:01.501Z,25.97
2023-05-13T11:12:01.446Z,26.40
2023-05-13T11:17:01.498Z,26.76
2023-05-13T11:22:01.329Z,26.97
2023-05-13T11:27:01.334Z,26.75
2023-05-13T11:32:01.357Z,25.79
2023-05-13T11:37:01.180Z,25.99
2023-05-13T11:42:01.205Z,26.29
2023-05-13T11:47:01.181Z,26.01
2023-05-13T11:52:01.110Z,26.44
2023-05-13T11:57:01.040Z,26.70
2023-05-13T12:02:00.988Z,26.29
2023-05-13T12:07:00.932Z,26.55
2023-05-13T12:12:00.851Z,26.63
2023-05-13T12:17:01.985Z,27.12
2023-05-13T12:22:00.864Z,26.65
2023-05-13T12:27:00.765Z,26.77
2023-05-13T12:32:00.786Z,26.92
2023-05-13T12:37:00.797Z,27.00
2023-05-13T12:42:00.540Z,26.09
2023-05-13T12:47:00.511Z,26.02
2023-05-13T12:52:00.471Z,27.21
2023-05-13T12:57:00.515Z,26.48
2023-05-13T13:02:09.289Z,27.09
2023-05-13T13:07:00.343Z,27.50
2023-05-13T13:12:00.374Z,26.60
2023-05-13T13:17:00.311Z,26.02
2023-05-13T13:22:00.173Z,26.54
2023-05-13T13:27:00.073Z,26.77
2023-05-13T13:32:00.089Z,26.60
2023-05-13T13:36:59.999Z,26.30
2023-05-13T13:41:59.930Z,26.50
2023-05-13T13:46:59.899Z,26.35
2023-05-13T13:51:59.808Z,26.88
2023-05-13T13:56:59.768Z,26.63
2023-05-13T14:01:59.782Z,25.70
2023-05-13T14:06:59.665Z,25.14
2023-05-13T14:11:59.640Z,25.54
2023-05-13T14:16:59.594Z,25.62
2023-05-13T14:21:59.524Z,25.27
2023-05-13T14:26:59.453Z,25.50
2023-05-13T14:31:59.556Z,26.37
2023-05-13T14:36:59.388Z,25.00
2023-05-13T14:41:59.293Z,23.80
2023-05-13T14:46:59.386Z,22.15
2023-05-13T14:51:44.045Z,20.52
2023-05-13T14:56:39.929Z,19.95
2023-05-13T15:01:39.934Z,19.62
2023-05-13T15:06:39.783Z,18.87
2023-05-13T15:11:41.083Z,18.60
2023-05-13T15:16:39.788Z,18.44
